Observations for KINLOSS RAF, United Kingdom (EGQK)

EGQK 250250Z AUTO 24014KT //// FEW032/// SCT050/// BKN110/// 02/01 Q1005
EGQK 250150Z AUTO 24012KT 9999 FEW014/// 02/01 Q1005 RERA   
EGQK 250050Z AUTO 23010KT 9999 RA BKN007/// SCT014/// 02/01 Q1004   
EGQK 242350Z AUTO 24013KT 9999 BKN029/// SCT042/// BKN070/// 02/M00 Q1004 REUP  
EGQK 242250Z AUTO 25013KT 9999 SCT060/// SCT140/// 02/M01 Q1004 
EGQK 242150Z AUTO 25014KT 9999 FEW150/// 02/M01 Q1003   
EGQK 242050Z AUTO 23013KT 9999 NCD 02/M01 Q1003 
EGQK 241950Z AUTO 23012KT 9999 FEW049/// 02/M01 Q1003   
EGQK 241850Z AUTO 23014KT 9999 FEW090/// 02/M00 Q1003   
EGQK 241750Z AUTO 23014KT 9999 FEW013/// BKN050/// 02/M00 Q1003 RERA
EGQK 241650Z AUTO 24014KT 9999 -RA FEW021/// BKN039/// 02/00 Q1003  
EGQK 241550Z AUTO 23013KT 9999 BKN045/// 02/M01 Q1002   
EGQK 241450Z AUTO 23016KT //// FEW060/// 02/M01 Q1002   
EGQK 241350Z AUTO 23015KT 9999 NCD 03/M01 Q1002 
EGQK 241250Z AUTO 22011KT 9999 NCD 03/M01 Q1002 
EGQK 241150Z AUTO 22012KT 9999 BKN050/// 02/M00 Q1002   
EGQK 241050Z AUTO 21008KT 9999 FEW100/// SCT130/// 01/M01 Q1002 
EGQK 240950Z AUTO 22007KT //// NCD 01/M02 Q1002 
EGQK 240850Z AUTO 21007KT 9999 NCD M00/M02 Q1001
EGQK 240750Z AUTO 23010KT 9999 FEW008/// SCT050/// 01/M00 Q1002 RESN
EGQK 240650Z AUTO 23010KT 9999 FEW090/// 01/M01 Q1002   
EGQK 240550Z AUTO 21007KT 9999 NCD 01/M02 Q1001 
EGQK 240450Z AUTO 21004KT 9999 FEW028/// 01/M01 Q1001   
EGQK 240350Z AUTO 24010KT 9999 BKN060/// BKN130/// 02/M00 Q1000 
EGQK 240250Z AUTO 23011KT 9999 BKN070/// 02/M00 Q1000